Time;durP1;ratioP1;P1;durP2;ratioP2;P2;SDS_P1;SDS_P2;PMS_P1;PMS_P2;Temp;Humidity;BMP_temperature;BMP_pressure;BME280_temperature;BME280_humidity;BME280_pressure;Samples;Min_cycle;Max_cycle;Signal;HPM_P1;HPM_P2
2022/05/08 00:02:11;;;;;;;9.87;8.70;;;14.90;84.90;;;;;;7376142;19;20372;-49
2022/05/08 00:04:41;;;;;;;12.13;9.90;;;14.80;85.10;;;;;;7377050;19;20388;-48
2022/05/08 00:07:13;;;;;;;10.47;9.47;;;14.90;84.50;;;;;;7376017;19;20422;-49
2022/05/08 00:09:42;;;;;;;10.40;9.37;;;15.10;83.40;;;;;;7377150;19;20404;-49
2022/05/08 00:12:13;;;;;;;11.20;9.30;;;15.30;82.80;;;;;;7374911;19;20392;-49
2022/05/08 00:14:43;;;;;;;12.10;10.37;;;15.30;82.70;;;;;;7375217;19;20384;-48
2022/05/08 00:17:13;;;;;;;10.60;8.93;;;15.10;83.40;;;;;;7375909;19;20380;-48
2022/05/08 00:19:47;;;;;;;12.20;9.97;;;15.00;83.40;;;;;;7376593;19;20966;-48
2022/05/08 00:22:22;;;;;;;12.37;10.23;;;14.80;84.20;;;;;;7373835;19;20369;-48
2022/05/08 00:24:55;;;;;;;10.83;9.30;;;14.90;84.50;;;;;;7373472;19;20392;-48
2022/05/08 00:27:24;;;;;;;11.33;9.03;;;14.90;84.10;;;;;;7378150;19;20945;-48
2022/05/08 00:29:56;;;;;;;10.17;8.70;;;14.90;84.00;;;;;;7376322;19;20964;-48
2022/05/08 00:32:26;;;;;;;9.97;8.87;;;15.00;84.30;;;;;;7376399;19;21117;-48
2022/05/08 00:34:59;;;;;;;10.00;8.80;;;15.00;84.10;;;;;;7376373;19;20405;-48
2022/05/08 00:37:31;;;;;;;10.90;9.70;;;14.70;85.40;;;;;;7375105;19;20376;-48
2022/05/08 00:40:00;;;;;;;12.23;9.17;;;14.70;85.60;;;;;;7375547;19;20405;-48
2022/05/08 00:42:30;;;;;;;12.10;9.10;;;14.70;85.70;;;;;;7376631;19;20375;-48
2022/05/08 00:45:04;;;;;;;10.03;8.77;;;14.70;85.90;;;;;;7374378;19;20757;-48
2022/05/08 00:47:38;;;;;;;11.07;9.10;;;14.60;86.00;;;;;;7373292;19;21009;-48
2022/05/08 00:50:09;;;;;;;11.50;9.10;;;14.60;86.30;;;;;;7375749;19;20379;-48
2022/05/08 00:52:43;;;;;;;10.73;9.60;;;14.40;87.20;;;;;;7374229;19;21183;-48
2022/05/08 00:55:13;;;;;;;10.40;9.30;;;14.50;87.40;;;;;;7374849;19;21065;-49
2022/05/08 00:57:45;;;;;;;10.80;9.63;;;14.50;87.20;;;;;;7378101;19;20407;-48
2022/05/08 01:00:21;;;;;;;10.47;9.47;;;14.50;87.50;;;;;;7377039;19;20413;-49
2022/05/08 01:02:50;;;;;;;12.30;11.00;;;14.60;87.00;;;;;;7380863;19;20956;-49
2022/05/08 01:05:20;;;;;;;9.57;8.50;;;14.60;86.80;;;;;;7382972;19;20749;-49
2022/05/08 01:07:54;;;;;;;10.20;9.10;;;14.70;86.20;;;;;;7381874;19;20408;-50
2022/05/08 01:10:24;;;;;;;12.13;9.50;;;14.80;85.80;;;;;;7380575;19;20483;-49
2022/05/08 01:12:54;;;;;;;11.07;9.77;;;14.70;86.60;;;;;;7383163;19;20926;-49
2022/05/08 01:15:23;;;;;;;11.47;9.23;;;14.50;86.50;;;;;;7381251;19;20364;-49
2022/05/08 01:17:53;;;;;;;10.30;9.20;;;14.50;87.10;;;;;;7382513;19;20427;-50
2022/05/08 01:20:22;;;;;;;11.50;10.30;;;14.50;86.70;;;;;;7380894;19;20375;-50
2022/05/08 01:22:57;;;;;;;10.50;8.80;;;14.40;87.80;;;;;;7381571;19;20792;-48
2022/05/08 01:25:27;;;;;;;11.60;9.80;;;14.30;88.20;;;;;;7382197;19;20368;-50
2022/05/08 01:27:57;;;;;;;14.90;10.10;;;14.20;89.20;;;;;;7382842;19;20383;-49
2022/05/08 01:30:28;;;;;;;10.73;9.73;;;14.20;89.40;;;;;;7381631;19;20376;-49
2022/05/08 01:33:00;;;;;;;12.20;10.73;;;14.20;89.10;;;;;;7382943;19;20376;-49
2022/05/08 01:35:31;;;;;;;13.00;10.50;;;14.20;89.60;;;;;;7382202;19;21133;-49
2022/05/08 01:38:03;;;;;;;16.80;10.30;;;14.20;90.00;;;;;;7382542;19;20962;-49
2022/05/08 01:40:36;;;;;;;12.23;10.97;;;14.10;90.20;;;;;;7381260;19;20383;-49
2022/05/08 01:43:06;;;;;;;17.57;12.47;;;14.10;90.40;;;;;;7384313;19;21051;-47
2022/05/08 01:45:38;;;;;;;14.50;11.53;;;13.90;90.50;;;;;;7380684;19;20912;-49
2022/05/08 01:48:22;;;;;;;13.33;12.03;;;13.80;90.90;;;;;;7381917;19;20731;-49
2022/05/08 01:50:55;;;;;;;14.30;11.13;;;13.90;90.90;;;;;;7380538;19;20404;-49
2022/05/08 01:53:31;;;;;;;13.53;12.10;;;13.80;90.90;;;;;;7379876;19;20461;-50
2022/05/08 01:56:02;;;;;;;13.70;11.63;;;13.70;91.40;;;;;;7379585;19;20380;-49
2022/05/08 01:58:34;;;;;;;13.40;11.50;;;13.80;91.50;;;;;;7379364;19;21013;-49
2022/05/08 02:01:08;;;;;;;14.40;11.97;;;13.70;91.40;;;;;;7380228;19;20405;-49
2022/05/08 02:03:37;;;;;;;12.50;11.00;;;13.70;91.60;;;;;;7380423;19;20406;-49
2022/05/08 02:06:09;;;;;;;13.93;11.60;;;13.90;91.40;;;;;;7381601;19;20379;-49
2022/05/08 02:08:43;;;;;;;12.77;10.80;;;13.80;91.50;;;;;;7379985;19;20463;-49
2022/05/08 02:11:12;;;;;;;14.63;11.80;;;13.90;91.50;;;;;;7376865;19;20388;-49
2022/05/08 02:13:42;;;;;;;13.50;11.97;;;13.80;91.40;;;;;;7378695;19;20385;-50
2022/05/08 02:16:12;;;;;;;12.50;10.27;;;13.80;91.40;;;;;;7378619;19;20452;-48
2022/05/08 02:18:44;;;;;;;13.57;11.97;;;13.90;91.40;;;;;;7375584;19;20428;-49
2022/05/08 02:21:13;;;;;;;13.50;11.43;;;13.80;91.70;;;;;;7378515;19;20416;-50
2022/05/08 02:23:48;;;;;;;15.00;12.70;;;13.70;92.50;;;;;;7376906;19;20392;-50
2022/05/08 02:26:21;;;;;;;15.03;12.07;;;13.80;92.10;;;;;;7378782;19;20364;-49
2022/05/08 02:28:50;;;;;;;15.80;12.23;;;13.80;91.90;;;;;;7380654;19;20399;-50
2022/05/08 02:31:20;;;;;;;12.63;11.30;;;13.90;91.40;;;;;;7378622;19;20729;-38
2022/05/08 02:33:49;;;;;;;14.13;10.40;;;14.00;91.40;;;;;;7378201;19;20455;-40
2022/05/08 02:36:23;;;;;;;16.40;12.60;;;14.00;91.40;;;;;;7378681;19;20369;-41
2022/05/08 02:38:55;;;;;;;11.37;10.20;;;14.10;91.20;;;;;;7377546;19;20372;-41
2022/05/08 02:41:25;;;;;;;11.97;9.87;;;14.00;91.20;;;;;;7381132;19;20410;-40
2022/05/08 02:43:57;;;;;;;12.53;10.33;;;13.90;91.80;;;;;;7376832;19;20460;-41
2022/05/08 02:46:29;;;;;;;11.87;10.40;;;14.00;91.10;;;;;;7379268;19;20926;-41
2022/05/08 02:49:03;;;;;;;13.53;11.83;;;14.00;91.00;;;;;;7377313;19;20375;-39
2022/05/08 02:51:35;;;;;;;12.37;11.17;;;14.00;91.00;;;;;;7381023;19;20380;-40
2022/05/08 02:54:09;;;;;;;13.90;11.40;;;14.10;90.70;;;;;;7377019;19;20861;-40
2022/05/08 02:59:23;;;;;;;11.80;9.90;;;14.00;91.10;;;;;;7378515;19;20372;-40
2022/05/08 03:01:52;;;;;;;13.67;11.50;;;13.80;91.60;;;;;;7379260;19;20712;-40
2022/05/08 03:04:24;;;;;;;16.23;10.80;;;13.60;92.20;;;;;;7378704;19;20389;-41
2022/05/08 03:06:54;;;;;;;11.83;10.63;;;13.60;92.50;;;;;;7379642;19;20931;-40
2022/05/08 03:09:28;;;;;;;16.77;11.27;;;13.60;92.70;;;;;;7374799;19;20372;-40
2022/05/08 03:11:58;;;;;;;12.80;11.10;;;13.50;93.00;;;;;;7379249;19;20398;-49
2022/05/08 03:14:32;;;;;;;13.87;11.70;;;13.40;93.20;;;;;;7374958;19;20384;-50
2022/05/08 03:17:04;;;;;;;13.43;10.97;;;13.30;93.60;;;;;;7378576;19;20412;-49
2022/05/08 03:19:33;;;;;;;12.60;11.10;;;13.20;93.70;;;;;;7374699;19;20446;-50
2022/05/08 03:22:03;;;;;;;13.50;12.07;;;13.30;93.90;;;;;;7376722;19;20452;-49
2022/05/08 03:24:35;;;;;;;13.60;11.43;;;13.40;93.60;;;;;;7373579;19;20926;-47
2022/05/08 03:27:06;;;;;;;15.23;11.83;;;13.50;93.30;;;;;;7379546;19;20371;-49
2022/05/08 03:29:40;;;;;;;15.53;11.20;;;13.60;92.80;;;;;;7377674;19;20383;-49
2022/05/08 03:32:10;;;;;;;15.50;11.90;;;13.60;92.80;;;;;;7374097;19;20486;-46
2022/05/08 03:34:42;;;;;;;12.50;10.90;;;13.50;93.20;;;;;;7375024;19;20890;-49
2022/05/08 03:37:11;;;;;;;16.90;12.10;;;13.60;93.00;;;;;;7376581;19;20376;-48
2022/05/08 03:39:43;;;;;;;11.57;10.27;;;13.40;93.30;;;;;;7374830;19;20380;-38
2022/05/08 03:42:14;;;;;;;13.27;10.40;;;13.40;93.40;;;;;;7377656;19;20479;-38
2022/05/08 03:44:43;;;;;;;11.87;10.67;;;13.50;92.90;;;;;;7375001;19;20431;-38
2022/05/08 03:47:13;;;;;;;12.80;11.13;;;13.50;92.80;;;;;;7377650;19;20408;-38
2022/05/08 03:49:44;;;;;;;12.87;11.17;;;13.50;92.80;;;;;;7376150;19;21224;-39
2022/05/08 03:52:16;;;;;;;13.00;10.57;;;13.40;93.10;;;;;;7377650;19;20368;-39
2022/05/08 03:54:50;;;;;;;14.93;11.00;;;13.30;93.20;;;;;;7371413;19;20376;-39
2022/05/08 03:57:19;;;;;;;13.60;11.13;;;13.30;93.50;;;;;;7375834;19;21450;-39
2022/05/08 03:59:51;;;;;;;13.40;11.47;;;13.20;93.70;;;;;;7379158;19;20384;-39
2022/05/08 04:02:23;;;;;;;15.73;11.87;;;13.20;93.70;;;;;;7374311;19;20364;-39
2022/05/08 04:04:52;;;;;;;11.57;10.40;;;13.30;93.70;;;;;;7374102;19;20391;-39
2022/05/08 04:07:24;;;;;;;15.33;10.90;;;13.30;93.70;;;;;;7377183;19;20443;-40
2022/05/08 04:10:03;;;;;;;12.80;10.93;;;13.30;93.40;;;;;;7370302;19;20376;-48
2022/05/08 04:12:34;;;;;;;14.80;11.47;;;13.30;93.70;;;;;;7377966;19;20379;-49
2022/05/08 04:15:04;;;;;;;14.03;12.17;;;13.30;93.50;;;;;;7377995;19;20368;-48
2022/05/08 04:17:32;;;;;;;14.80;12.20;;;13.30;93.70;;;;;;7376562;19;20396;-49
2022/05/08 04:20:07;;;;;;;15.33;11.47;;;13.20;93.50;;;;;;7376570;19;20380;-49
2022/05/08 04:25:30;;;;;;;17.23;12.17;;;13.30;93.50;;;;;;7371033;19;20758;-48
2022/05/08 04:28:02;;;;;;;18.80;12.53;;;13.20;94.10;;;;;;7376612;19;20368;-49
2022/05/08 04:30:34;;;;;;;14.63;13.10;;;13.20;94.10;;;;;;7376097;19;20384;-48
2022/05/08 04:33:04;;;;;;;14.80;10.87;;;13.20;93.80;;;;;;7376214;19;20384;-48
2022/05/08 04:35:33;;;;;;;15.77;12.47;;;13.20;93.70;;;;;;7372386;19;20925;-50
2022/05/08 04:38:05;;;;;;;13.87;11.57;;;13.20;93.70;;;;;;7376396;19;20460;-48
2022/05/08 04:40:41;;;;;;;13.73;11.80;;;13.00;94.30;;;;;;7375236;19;20380;-48
2022/05/08 04:43:13;;;;;;;15.43;11.83;;;13.20;94.10;;;;;;7372374;19;20368;-48
2022/05/08 04:45:42;;;;;;;15.80;13.17;;;13.20;94.30;;;;;;7376179;19;20436;-48
2022/05/08 04:48:13;;;;;;;15.87;13.10;;;13.00;94.80;;;;;;7372628;19;20739;-47
2022/05/08 04:50:43;;;;;;;15.97;12.60;;;13.10;95.20;;;;;;7374098;19;20395;-48
2022/05/08 04:53:12;;;;;;;14.47;12.83;;;13.10;94.80;;;;;;7373671;19;20416;-48
2022/05/08 04:55:48;;;;;;;16.40;12.73;;;13.20;94.70;;;;;;7373832;19;20923;-48
2022/05/08 04:58:17;;;;;;;15.00;12.63;;;13.10;95.10;;;;;;7375521;19;20973;-48
2022/05/08 05:00:53;;;;;;;15.67;13.80;;;13.20;94.70;;;;;;7375227;19;20380;-48
2022/05/08 05:03:22;;;;;;;16.73;12.87;;;13.40;94.40;;;;;;7374605;19;20390;-49
2022/05/08 05:05:54;;;;;;;14.83;13.23;;;13.50;94.20;;;;;;7376802;19;20427;-48
2022/05/08 05:08:24;;;;;;;15.10;13.50;;;13.60;93.90;;;;;;7372718;19;20418;-48
2022/05/08 05:10:56;;;;;;;16.67;13.60;;;13.70;93.80;;;;;;7374571;19;20492;-39
2022/05/08 05:13:28;;;;;;;16.20;12.77;;;13.70;93.60;;;;;;7373665;19;20376;-39
2022/05/08 05:15:57;;;;;;;14.90;12.10;;;13.40;93.90;;;;;;7370583;19;20416;-39
2022/05/08 05:18:27;;;;;;;15.57;13.37;;;13.50;94.00;;;;;;7373271;19;20836;-39
2022/05/08 05:20:56;;;;;;;16.10;14.40;;;13.70;93.70;;;;;;7370542;19;20417;-39
2022/05/08 05:23:28;;;;;;;17.20;14.13;;;13.70;94.10;;;;;;7375677;19;20463;-39
2022/05/08 05:26:02;;;;;;;16.83;14.20;;;13.70;93.60;;;;;;7372585;19;20372;-39
2022/05/08 05:28:32;;;;;;;14.80;13.00;;;13.50;93.70;;;;;;7375492;19;20999;-39
2022/05/08 05:31:04;;;;;;;20.80;13.93;;;13.40;94.30;;;;;;7372296;19;20379;-39
2022/05/08 05:33:35;;;;;;;14.80;13.20;;;13.50;94.50;;;;;;7375545;19;20372;-40
2022/05/08 05:36:05;;;;;;;17.43;13.47;;;13.60;94.10;;;;;;7373038;19;20391;-39
2022/05/08 05:38:40;;;;;;;15.03;13.20;;;13.60;93.90;;;;;;7373452;19;20957;-39
2022/05/08 05:41:12;;;;;;;17.13;14.50;;;13.70;93.70;;;;;;7373318;19;20380;-48
2022/05/08 05:43:44;;;;;;;19.40;14.77;;;13.80;93.60;;;;;;7375582;19;20392;-48
2022/05/08 05:48:57;;;;;;;19.80;16.03;;;13.80;93.70;;;;;;7381846;19;21954;-48
2022/05/08 05:51:28;;;;;;;17.30;14.30;;;14.00;93.30;;;;;;7381326;19;20391;-49
2022/05/08 05:53:59;;;;;;;17.90;15.43;;;14.00;92.80;;;;;;7381575;19;20402;-49
2022/05/08 05:56:31;;;;;;;16.77;14.97;;;14.00;92.40;;;;;;7370878;19;20463;-48
2022/05/08 05:59:01;;;;;;;19.07;15.00;;;14.20;91.90;;;;;;7378622;19;20953;-48
2022/05/08 06:01:31;;;;;;;22.20;16.67;;;14.40;91.60;;;;;;7382389;19;20455;-48
2022/05/08 06:04:02;;;;;;;17.40;15.00;;;14.50;91.40;;;;;;7381050;19;20773;-48
2022/05/08 06:06:32;;;;;;;18.27;14.73;;;14.60;91.00;;;;;;7380907;19;20417;-48
2022/05/08 06:09:01;;;;;;;18.10;16.20;;;14.80;91.00;;;;;;7379746;19;20968;-48
2022/05/08 06:11:36;;;;;;;17.27;15.57;;;14.80;90.60;;;;;;7376129;19;20412;-48
2022/05/08 06:14:08;;;;;;;19.83;17.70;;;14.90;90.30;;;;;;7382914;19;20462;-48
2022/05/08 06:16:37;;;;;;;18.70;16.70;;;15.00;90.00;;;;;;7379129;19;20997;-47
2022/05/08 06:19:09;;;;;;;20.73;17.10;;;15.10;89.00;;;;;;7378905;19;20830;-47
2022/05/08 06:21:39;;;;;;;17.43;15.17;;;15.20;88.30;;;;;;7378912;19;20372;-48
2022/05/08 06:24:12;;;;;;;20.60;17.70;;;15.20;88.40;;;;;;7379452;19;20404;-49
2022/05/08 06:26:44;;;;;;;18.43;15.73;;;15.30;87.80;;;;;;7378457;19;20385;-48
2022/05/08 06:29:13;;;;;;;19.00;16.10;;;15.50;87.00;;;;;;7381117;19;20388;-49
2022/05/08 06:31:46;;;;;;;17.93;15.40;;;15.50;85.90;;;;;;7379251;19;20914;-48
2022/05/08 06:34:18;;;;;;;19.17;16.20;;;15.70;85.90;;;;;;7376711;19;20909;-48
2022/05/08 06:36:48;;;;;;;18.43;15.63;;;15.70;86.20;;;;;;7379268;19;20420;-48
2022/05/08 06:39:20;;;;;;;22.63;17.17;;;15.80;84.80;;;;;;7379094;19;20368;-48
2022/05/08 06:41:52;;;;;;;19.40;17.00;;;15.90;84.10;;;;;;7376462;19;20920;-48
2022/05/08 06:44:30;;;;;;;17.40;14.93;;;16.00;83.40;;;;;;7379134;19;20408;-48
2022/05/08 06:47:00;;;;;;;16.90;15.10;;;16.10;83.50;;;;;;7380441;19;20384;-48
2022/05/08 06:49:32;;;;;;;16.23;14.63;;;16.40;82.10;;;;;;7378635;19;20384;-48
2022/05/08 06:52:02;;;;;;;17.40;15.70;;;16.50;80.50;;;;;;7376660;19;20387;-48
2022/05/08 06:54:34;;;;;;;18.43;16.63;;;16.60;79.80;;;;;;7376661;19;20457;-48
2022/05/08 06:57:12;;;;;;;17.27;15.47;;;16.70;79.20;;;;;;7375610;19;20380;-48
2022/05/08 07:02:25;;;;;;;18.70;16.70;;;16.80;78.70;;;;;;7375843;19;20356;-48
2022/05/08 07:04:57;;;;;;;18.07;15.10;;;16.80;78.70;;;;;;7376195;19;20388;-48
2022/05/08 07:07:26;;;;;;;17.30;15.47;;;17.00;77.50;;;;;;7378952;19;20397;-48
2022/05/08 07:09:59;;;;;;;17.73;15.93;;;17.00;76.90;;;;;;7378062;19;20372;-48
2022/05/08 07:12:33;;;;;;;17.97;16.07;;;17.10;76.40;;;;;;7378232;19;20468;-48
2022/05/08 07:15:03;;;;;;;16.50;14.80;;;17.00;76.80;;;;;;7379746;19;21115;-48
2022/05/08 07:17:33;;;;;;;19.10;16.40;;;17.10;77.20;;;;;;7377651;19;21013;-48
2022/05/08 07:20:03;;;;;;;17.10;14.90;;;17.10;78.10;;;;;;7378540;19;20840;-48
2022/05/08 07:22:35;;;;;;;18.03;15.70;;;17.30;77.00;;;;;;7376827;19;20408;-49
2022/05/08 07:25:05;;;;;;;17.47;15.20;;;17.50;76.50;;;;;;7375588;19;20753;-48
2022/05/08 07:27:39;;;;;;;16.77;15.10;;;17.60;74.90;;;;;;7378510;19;20459;-48
2022/05/08 07:30:11;;;;;;;18.60;15.80;;;17.50;75.30;;;;;;7373086;19;20433;-48
2022/05/08 07:32:40;;;;;;;16.93;15.13;;;17.60;75.50;;;;;;7379450;19;20388;-48
2022/05/08 07:37:53;;;;;;;17.60;15.60;;;17.80;74.80;;;;;;7376461;19;20652;-48
2022/05/08 07:40:26;;;;;;;19.70;15.20;;;18.00;73.60;;;;;;7374158;19;20381;-49
2022/05/08 07:42:58;;;;;;;16.83;14.47;;;17.90;74.10;;;;;;7371340;19;20448;-48
2022/05/08 07:45:28;;;;;;;18.80;16.60;;;17.90;74.30;;;;;;7376781;19;20898;-49
2022/05/08 07:47:59;;;;;;;18.80;16.50;;;18.10;73.40;;;;;;7379579;19;20429;-48
2022/05/08 07:50:29;;;;;;;18.87;16.87;;;18.40;72.30;;;;;;7378274;19;20815;-49
2022/05/08 07:52:58;;;;;;;17.70;15.80;;;18.40;71.30;;;;;;7375926;19;20404;-49
2022/05/08 07:55:33;;;;;;;17.87;15.97;;;18.40;71.20;;;;;;7375825;19;20384;-49
2022/05/08 07:58:05;;;;;;;17.50;15.80;;;18.50;71.10;;;;;;7377330;19;20650;-49
2022/05/08 08:00:38;;;;;;;17.00;15.20;;;18.60;70.90;;;;;;7376232;19;20388;-50
2022/05/08 08:03:10;;;;;;;17.27;15.57;;;18.70;71.10;;;;;;7377694;19;20914;-49
2022/05/08 08:05:43;;;;;;;17.67;15.87;;;18.80;70.10;;;;;;7378108;19;20388;-49
2022/05/08 08:08:12;;;;;;;17.83;15.90;;;19.00;69.20;;;;;;7377516;19;20388;-49
2022/05/08 08:10:42;;;;;;;16.60;14.90;;;19.10;68.80;;;;;;7373380;19;20408;-49
2022/05/08 08:13:16;;;;;;;19.87;15.00;;;19.20;68.80;;;;;;7377184;19;20486;-48
2022/05/08 08:15:47;;;;;;;20.97;14.53;;;19.40;68.30;;;;;;7376632;19;20391;-49
2022/05/08 08:18:18;;;;;;;15.93;13.83;;;19.40;66.90;;;;;;7373345;19;20464;-49
2022/05/08 08:20:50;;;;;;;15.83;14.23;;;19.60;67.00;;;;;;7374879;19;20379;-49
2022/05/08 08:23:19;;;;;;;15.70;14.20;;;19.70;65.40;;;;;;7375809;19;20957;-50
2022/05/08 08:25:49;;;;;;;14.43;13.10;;;19.80;66.00;;;;;;7372904;19;20376;-49
2022/05/08 08:28:24;;;;;;;21.53;14.23;;;20.00;64.10;;;;;;7376369;19;20383;-50
2022/05/08 08:30:53;;;;;;;13.90;12.50;;;20.10;62.50;;;;;;7376087;19;20376;-50
2022/05/08 08:33:26;;;;;;;15.50;12.83;;;20.20;62.70;;;;;;7373789;19;20423;-49
2022/05/08 08:36:00;;;;;;;14.93;12.10;;;20.60;62.20;;;;;;7376012;19;20380;-49
2022/05/08 08:38:32;;;;;;;11.23;10.13;;;21.00;60.10;;;;;;7373555;19;20448;-49
2022/05/08 08:41:04;;;;;;;13.00;11.60;;;21.60;58.70;;;;;;7374616;19;20875;-48
2022/05/08 08:47:42;;;;;;;12.53;11.33;;;22.10;58.10;;;;;;7373921;19;20395;-50
2022/05/08 08:49:23;;;;;;;11.20;10.20;;;22.50;54.40;;;;;;7376093;19;20384;-49
2022/05/08 08:51:55;;;;;;;10.93;9.90;;;22.90;54.70;;;;;;7377311;19;21001;-49
2022/05/08 08:54:24;;;;;;;11.10;10.00;;;23.30;53.00;;;;;;7373377;19;20408;-49
2022/05/08 08:56:54;;;;;;;9.90;8.93;;;23.40;52.40;;;;;;7376170;19;20417;-50
2022/05/08 08:59:28;;;;;;;8.87;8.07;;;23.90;51.90;;;;;;7376663;19;20385;-50
2022/05/08 09:01:58;;;;;;;9.27;8.37;;;24.30;51.20;;;;;;7376387;19;20387;-50
2022/05/08 09:04:28;;;;;;;9.93;9.00;;;24.60;51.10;;;;;;7375113;19;20380;-51
2022/05/08 09:07:00;;;;;;;9.20;8.40;;;25.10;48.70;;;;;;7373907;19;20446;-49
2022/05/08 09:09:34;;;;;;;9.30;8.40;;;25.50;48.40;;;;;;7375376;19;20353;-50
2022/05/08 09:12:05;;;;;;;8.40;7.70;;;25.60;47.60;;;;;;7376406;19;20730;-48
2022/05/08 09:14:38;;;;;;;10.23;9.33;;;25.70;47.00;;;;;;7377107;19;20404;-49
2022/05/08 09:17:11;;;;;;;10.33;9.43;;;25.70;45.80;;;;;;7370206;19;21721;-49
2022/05/08 09:19:43;;;;;;;10.53;9.63;;;25.20;46.70;;;;;;7372623;19;20463;-49
2022/05/08 09:22:16;;;;;;;11.40;10.40;;;24.90;47.00;;;;;;7381266;19;20392;-50
2022/05/08 09:24:54;;;;;;;9.43;8.57;;;24.70;47.30;;;;;;7379931;19;20388;-49
2022/05/08 09:27:25;;;;;;;11.13;10.13;;;24.70;48.40;;;;;;7384717;19;20410;-48
2022/05/08 09:30:10;;;;;;;9.73;8.83;;;24.60;48.00;;;;;;7379995;19;20450;-48
2022/05/08 09:32:46;;;;;;;9.97;9.07;;;24.80;48.00;;;;;;7381129;19;20958;-48
2022/05/08 09:35:15;;;;;;;10.43;9.37;;;25.30;47.30;;;;;;7382903;19;20376;-49
2022/05/08 09:37:56;;;;;;;10.50;9.50;;;25.80;45.40;;;;;;7380508;19;20467;-48
2022/05/08 09:40:28;;;;;;;10.53;9.53;;;26.00;45.20;;;;;;7377413;19;20779;-49
2022/05/08 09:43:00;;;;;;;11.57;10.67;;;26.20;45.20;;;;;;7383266;19;20384;-48
2022/05/08 09:45:32;;;;;;;11.33;10.33;;;25.90;44.50;;;;;;7380665;19;20384;-48
2022/05/08 09:48:02;;;;;;;9.70;8.70;;;25.60;45.90;;;;;;7380530;19;20434;-49
2022/05/08 09:50:33;;;;;;;9.57;8.70;;;25.40;45.80;;;;;;7382594;19;20379;-48
2022/05/08 09:53:04;;;;;;;8.90;8.10;;;25.50;46.30;;;;;;7380457;19;20387;-49
2022/05/08 09:55:34;;;;;;;8.77;7.73;;;25.50;45.80;;;;;;7380855;19;20368;-48
2022/05/08 09:58:03;;;;;;;9.70;8.80;;;26.00;44.90;;;;;;7380774;19;20392;-49
2022/05/08 10:00:39;;;;;;;9.40;8.40;;;26.20;45.50;;;;;;7381516;19;20364;-49
2022/05/08 10:03:09;;;;;;;9.63;8.27;;;26.60;43.90;;;;;;7381150;19;20920;-49
2022/05/08 10:05:40;;;;;;;13.77;9.70;;;26.90;42.80;;;;;;7381172;19;20380;-48
2022/05/08 10:08:10;;;;;;;8.70;7.63;;;26.60;43.50;;;;;;7378752;19;20390;-48
2022/05/08 10:16:55;;;;;;;8.43;7.63;;;26.80;42.50;;;;;;7380568;19;20383;-48
2022/05/08 10:19:49;;;;;;;9.43;8.60;;;26.90;43.00;;;;;;7376494;19;20431;-48
2022/05/08 10:22:18;;;;;;;8.70;7.90;;;26.80;42.00;;;;;;7379816;19;20723;-48
2022/05/08 10:24:51;;;;;;;9.30;8.40;;;26.60;42.40;;;;;;7373844;19;20387;-48
2022/05/08 10:27:23;;;;;;;9.07;8.27;;;26.90;42.30;;;;;;7376771;19;20372;-48
2022/05/08 10:30:34;;;;;;;8.07;7.27;;;27.00;42.50;;;;;;7377692;19;21004;-48
2022/05/08 10:33:08;;;;;;;8.77;7.83;;;27.10;42.00;;;;;;7376095;19;20388;-49
2022/05/08 10:35:40;;;;;;;9.20;8.23;;;26.90;42.80;;;;;;7382687;19;20420;-49
2022/05/08 10:38:22;;;;;;;9.97;8.23;;;27.00;42.90;;;;;;7377732;19;20909;-48
2022/05/08 10:40:55;;;;;;;7.40;6.70;;;27.30;41.60;;;;;;7377622;19;21053;-49
2022/05/08 10:43:33;;;;;;;8.07;7.40;;;27.40;42.10;;;;;;7379161;19;20376;-50
2022/05/08 10:46:27;;;;;;;7.90;7.20;;;28.10;40.90;;;;;;7379280;19;20961;-49
2022/05/08 10:48:59;;;;;;;6.30;5.80;;;28.60;37.60;;;;;;7377728;19;20387;-47
2022/05/08 10:51:31;;;;;;;6.40;4.93;;;28.40;36.70;;;;;;7379057;19;20375;-48
2022/05/08 10:54:12;;;;;;;6.10;4.73;;;28.30;35.00;;;;;;7375656;19;20388;-47
2022/05/08 10:56:49;;;;;;;5.60;4.83;;;28.20;34.70;;;;;;7377297;19;20380;-48
2022/05/08 10:59:21;;;;;;;5.40;4.90;;;28.40;34.50;;;;;;7377313;19;20388;-48
2022/05/08 11:01:54;;;;;;;5.70;4.60;;;29.10;34.10;;;;;;7376389;19;20379;-47
2022/05/08 11:04:26;;;;;;;5.97;3.93;;;29.30;32.50;;;;;;7381530;19;20388;-48
2022/05/08 11:06:59;;;;;;;5.60;5.20;;;29.50;33.60;;;;;;7379374;19;20654;-48
2022/05/08 11:09:28;;;;;;;4.53;4.00;;;29.50;32.50;;;;;;7378657;19;20391;-50
2022/05/08 11:12:06;;;;;;;5.00;4.50;;;30.10;32.90;;;;;;7378211;19;20820;-50
2022/05/08 11:14:38;;;;;;;6.20;4.60;;;30.50;31.10;;;;;;7379255;19;20738;-48
2022/05/08 11:17:16;;;;;;;6.70;4.67;;;30.50;31.40;;;;;;7377623;19;20469;-50
2022/05/08 11:19:58;;;;;;;4.63;4.17;;;31.00;30.50;;;;;;7375092;19;20462;-52
2022/05/08 11:22:27;;;;;;;6.07;5.13;;;31.20;29.90;;;;;;7379138;19;20372;-48
2022/05/08 11:25:13;;;;;;;6.90;5.07;;;30.30;30.20;;;;;;7375109;19;20809;-48
2022/05/08 11:27:53;;;;;;;6.10;4.90;;;30.30;30.80;;;;;;7378366;19;21104;-47
2022/05/08 11:30:34;;;;;;;6.40;4.57;;;29.90;30.30;;;;;;7378440;19;20372;-40
2022/05/08 11:38:46;;;;;;;5.00;4.50;;;30.40;30.70;;;;;;7376034;19;20924;-39
2022/05/08 11:41:17;;;;;;;3.93;3.53;;;30.40;30.20;;;;;;7378751;19;20364;-39
2022/05/08 11:43:49;;;;;;;5.10;4.70;;;30.60;29.40;;;;;;7379402;19;20900;-42
2022/05/08 11:46:20;;;;;;;4.63;4.20;;;30.80;29.90;;;;;;7377172;19;20372;-42
2022/05/08 11:48:50;;;;;;;7.93;4.93;;;31.00;29.60;;;;;;7377843;19;20372;-39
2022/05/08 11:51:23;;;;;;;6.43;4.90;;;30.40;29.80;;;;;;7375109;19;21005;-39
2022/05/08 11:53:55;;;;;;;5.17;4.63;;;30.20;30.10;;;;;;7376448;19;20375;-39
2022/05/08 11:56:27;;;;;;;5.13;4.63;;;29.90;30.70;;;;;;7376938;19;20464;-39
2022/05/08 11:58:58;;;;;;;6.10;5.53;;;29.90;31.70;;;;;;7377255;19;21049;-39
2022/05/08 12:01:30;;;;;;;4.93;4.53;;;29.00;31.40;;;;;;7377157;19;20394;-48
2022/05/08 12:04:00;;;;;;;5.70;5.20;;;28.40;33.60;;;;;;7377684;19;20392;-47
2022/05/08 12:06:36;;;;;;;4.53;3.90;;;29.10;32.60;;;;;;7377806;19;20383;-47
2022/05/08 12:09:09;;;;;;;4.63;4.20;;;30.20;31.50;;;;;;7376207;19;20926;-50
2022/05/08 12:11:41;;;;;;;5.60;5.10;;;30.90;30.00;;;;;;7377458;19;20468;-49
2022/05/08 12:14:11;;;;;;;4.60;4.27;;;31.50;29.40;;;;;;7375620;19;20766;-50
2022/05/08 12:16:41;;;;;;;6.33;4.80;;;31.60;29.80;;;;;;7378423;19;20384;-49
2022/05/08 12:19:20;;;;;;;7.13;5.00;;;32.40;28.90;;;;;;7369783;19;20408;-50
2022/05/08 12:21:52;;;;;;;6.00;5.40;;;33.00;28.40;;;;;;7377966;19;20376;-50
2022/05/08 12:24:21;;;;;;;4.77;4.37;;;32.20;28.80;;;;;;7370920;19;20969;-50
2022/05/08 12:26:54;;;;;;;5.83;4.77;;;31.60;29.40;;;;;;7377090;19;20451;-50
2022/05/08 12:29:26;;;;;;;4.83;4.33;;;31.30;29.60;;;;;;7376704;19;20381;-47
2022/05/08 12:31:56;;;;;;;4.60;4.20;;;30.30;30.70;;;;;;7376826;19;20372;-48
2022/05/08 12:34:29;;;;;;;4.40;3.97;;;29.80;30.90;;;;;;7376460;19;20449;-48
2022/05/08 12:37:01;;;;;;;5.87;5.27;;;29.50;32.00;;;;;;7377914;19;20389;-48
2022/05/08 12:39:30;;;;;;;6.10;4.90;;;29.60;33.00;;;;;;7372710;19;20450;-49
2022/05/08 12:42:00;;;;;;;4.80;4.30;;;29.50;31.70;;;;;;7377988;19;20729;-48
2022/05/08 12:44:30;;;;;;;6.13;4.33;;;29.30;32.00;;;;;;7371241;19;20379;-48
2022/05/08 12:47:04;;;;;;;4.70;4.20;;;29.30;32.40;;;;;;7375690;19;20944;-48
2022/05/08 12:49:36;;;;;;;4.90;4.40;;;29.10;32.70;;;;;;7376124;19;20376;-49
2022/05/08 12:52:10;;;;;;;4.70;3.93;;;29.00;33.40;;;;;;7376535;19;20790;-48
2022/05/08 12:54:44;;;;;;;5.17;4.67;;;28.40;33.40;;;;;;7371567;19;20372;-49
2022/05/08 12:59:42;;;;;;;4.63;3.83;;;28.00;33.70;;;;;;7375722;19;20878;-48
2022/05/08 13:00:10;;;;;;;5.27;4.00;;;27.50;34.60;;;;;;7376382;19;20372;-49
2022/05/08 13:02:39;;;;;;;4.30;3.90;;;27.30;32.90;;;;;;7377176;19;20418;-48
2022/05/08 13:05:13;;;;;;;4.57;3.80;;;27.10;34.20;;;;;;7372060;19;20372;-48
2022/05/08 13:07:48;;;;;;;5.70;3.57;;;27.20;33.60;;;;;;7377831;19;20420;-48
2022/05/08 13:10:17;;;;;;;4.60;3.10;;;27.30;33.30;;;;;;7372262;19;20418;-48
2022/05/08 13:12:49;;;;;;;5.03;4.03;;;27.30;32.80;;;;;;7375753;19;20410;-50
2022/05/08 13:15:21;;;;;;;3.47;3.17;;;27.10;33.20;;;;;;7372981;19;20386;-48
2022/05/08 13:17:51;;;;;;;3.53;3.23;;;26.90;33.70;;;;;;7348042;19;20479;-50
2022/05/08 13:20:22;;;;;;;6.30;4.00;;;26.70;34.80;;;;;;7374377;19;21276;-50
2022/05/08 13:22:54;;;;;;;3.63;3.33;;;26.70;34.20;;;;;;7376408;19;20424;-50
2022/05/08 13:25:26;;;;;;;3.77;3.47;;;26.70;34.90;;;;;;7370873;19;20370;-49
2022/05/08 13:28:01;;;;;;;4.10;3.70;;;27.00;34.60;;;;;;7374528;19;20392;-48